createdAt,value
2019-04-22T00:00:55.650Z,13.20
2019-04-22T00:03:33.937Z,13.20
2019-04-22T00:06:21.095Z,13.10
2019-04-22T00:08:49.258Z,13.10
2019-04-22T00:11:25.982Z,13.00
2019-04-22T00:13:52.034Z,13.00
2019-04-22T00:16:26.369Z,13.00
2019-04-22T00:19:11.443Z,12.90
2019-04-22T00:21:29.258Z,12.90
2019-04-22T00:23:59.570Z,12.90
2019-04-22T00:26:29.087Z,12.80
2019-04-22T00:28:59.318Z,12.80
2019-04-22T00:31:49.416Z,12.70
2019-04-22T00:34:24.178Z,12.70
2019-04-22T00:36:54.594Z,12.60
2019-04-22T00:39:26.980Z,12.60
2019-04-22T00:41:56.472Z,12.60
2019-04-22T00:44:35.469Z,12.60
2019-04-22T00:47:01.842Z,12.50
2019-04-22T00:52:03.638Z,12.50
2019-04-22T00:54:32.912Z,12.40
2019-04-22T00:57:02.814Z,12.40
2019-04-22T00:59:29.883Z,12.40
2019-04-22T01:02:07.499Z,12.40
2019-04-22T01:04:40.934Z,12.30
2019-04-22T01:07:09.130Z,12.30
2019-04-22T01:09:40.175Z,12.30
2019-04-22T01:12:07.293Z,12.20
2019-04-22T01:14:35.296Z,12.20
2019-04-22T01:17:07.943Z,12.20
2019-04-22T01:19:45.148Z,12.10
2019-04-22T01:22:12.861Z,12.10
2019-04-22T01:24:40.771Z,12.10
2019-04-22T01:27:03.662Z,12.10
2019-04-22T01:29:30.811Z,12.00
2019-04-22T01:31:51.380Z,12.00
2019-04-22T01:34:37.493Z,12.00
2019-04-22T01:37:07.997Z,11.90
2019-04-22T01:39:49.982Z,11.90
2019-04-22T01:42:16.915Z,11.90
2019-04-22T01:44:49.100Z,11.80
2019-04-22T01:47:29.933Z,11.80
2019-04-22T01:49:55.599Z,11.80
2019-04-22T01:52:20.508Z,11.80
2019-04-22T01:54:59.732Z,11.70
2019-04-22T01:57:27.055Z,11.70
2019-04-22T01:59:45.829Z,11.70
2019-04-22T02:02:22.191Z,11.70
2019-04-22T02:05:00.991Z,11.60
2019-04-22T02:07:29.301Z,11.60
2019-04-22T02:09:55.556Z,11.60
2019-04-22T02:12:29.854Z,11.60
2019-04-22T02:14:57.832Z,11.50
2019-04-22T02:17:32.310Z,11.50
2019-04-22T02:20:06.755Z,11.50
2019-04-22T02:22:52.685Z,11.50
2019-04-22T02:25:09.467Z,11.40
2019-04-22T02:27:39.127Z,11.40
2019-04-22T02:29:57.887Z,11.40
2019-04-22T02:35:11.270Z,11.40
2019-04-22T02:37:35.315Z,11.30
2019-04-22T02:40:10.271Z,11.30
2019-04-22T02:42:32.411Z,11.30
2019-04-22T02:45:07.132Z,11.20
2019-04-22T02:47:44.926Z,11.20
2019-04-22T02:50:12.658Z,11.20
2019-04-22T02:55:17.166Z,11.20
2019-04-22T02:57:55.586Z,11.10
2019-04-22T03:00:27.368Z,11.10
2019-04-22T03:03:03.876Z,11.10
2019-04-22T03:07:58.785Z,11.00
2019-04-22T03:10:22.754Z,11.00
2019-04-22T03:13:09.014Z,11.00
2019-04-22T03:15:15.069Z,10.90
2019-04-22T03:17:58.456Z,11.00
2019-04-22T03:20:14.580Z,11.00
2019-04-22T03:22:55.460Z,10.90
2019-04-22T03:27:46.379Z,10.90
2019-04-22T03:30:47.553Z,10.80
2019-04-22T03:33:19.299Z,10.90
2019-04-22T03:35:39.859Z,10.80
2019-04-22T03:40:46.375Z,10.70
2019-04-22T03:53:14.978Z,10.70
2019-04-22T03:55:39.029Z,10.70
2019-04-22T03:58:01.243Z,10.60
2019-04-22T04:05:49.646Z,10.60
2019-04-22T04:08:14.606Z,10.60
2019-04-22T04:10:40.201Z,10.50
2019-04-22T04:13:08.512Z,10.50
2019-04-22T04:18:06.857Z,10.50
2019-04-22T04:23:21.907Z,10.40
2019-04-22T04:33:16.355Z,10.40
2019-04-22T04:35:47.879Z,10.40
2019-04-22T04:38:11.136Z,10.30
2019-04-22T04:40:46.166Z,10.30
2019-04-22T04:43:20.142Z,10.30
2019-04-22T04:48:20.780Z,10.30
2019-04-22T04:51:04.800Z,10.30
2019-04-22T04:53:29.279Z,10.20
2019-04-22T04:55:46.724Z,10.20
2019-04-22T04:58:36.590Z,10.20
2019-04-22T05:05:54.641Z,10.20
2019-04-22T05:08:38.961Z,10.20
2019-04-22T05:13:26.085Z,10.10
2019-04-22T05:16:10.700Z,10.10
2019-04-22T05:18:18.971Z,10.10
2019-04-22T05:23:32.294Z,10.10
2019-04-22T05:25:51.246Z,10.10
2019-04-22T05:28:25.866Z,10.10
2019-04-22T05:30:58.965Z,10.10
2019-04-22T05:33:21.589Z,10.10
2019-04-22T05:35:57.937Z,10.10
2019-04-22T05:40:56.391Z,10.10
2019-04-22T05:43:30.986Z,10.10
2019-04-22T05:46:00.488Z,10.10
2019-04-22T05:48:34.231Z,10.10
2019-04-22T05:50:59.829Z,10.10
2019-04-22T05:53:25.892Z,10.10
2019-04-22T05:56:05.282Z,10.10
2019-04-22T06:03:46.460Z,10.10
2019-04-22T06:06:13.697Z,10.10
2019-04-22T06:08:45.495Z,10.10
2019-04-22T06:11:22.769Z,10.10
2019-04-22T06:13:40.465Z,10.10
2019-04-22T06:16:18.246Z,10.20
2019-04-22T06:18:55.135Z,10.30
2019-04-22T06:21:28.043Z,10.50
2019-04-22T06:23:54.384Z,10.60
2019-04-22T06:26:31.270Z,10.70
2019-04-22T06:28:56.933Z,10.90
2019-04-22T06:31:37.370Z,11.00
2019-04-22T06:34:03.908Z,11.10
2019-04-22T06:36:29.519Z,11.10
2019-04-22T06:38:59.045Z,11.20
2019-04-22T06:41:31.640Z,11.30
2019-04-22T06:44:05.819Z,11.40
2019-04-22T06:46:37.343Z,11.50
2019-04-22T06:49:09.336Z,11.60
2019-04-22T06:51:37.563Z,11.70
2019-04-22T06:54:09.763Z,11.80
2019-04-22T06:56:41.316Z,11.90
2019-04-22T06:59:06.641Z,12.00
2019-04-22T07:01:59.294Z,12.20
2019-04-22T07:04:23.352Z,12.30
2019-04-22T07:07:02.253Z,12.30
2019-04-22T07:12:02.192Z,12.60
2019-04-22T07:14:31.654Z,12.60
2019-04-22T07:17:20.582Z,12.70
2019-04-22T07:19:51.138Z,12.70
2019-04-22T07:22:45.782Z,12.80
2019-04-22T07:25:23.610Z,12.80
2019-04-22T07:27:55.126Z,12.90
2019-04-22T07:35:28.973Z,13.10
2019-04-22T07:37:53.908Z,13.10
2019-04-22T07:40:34.375Z,13.20
2019-04-22T07:43:00.031Z,13.30
2019-04-22T07:45:29.251Z,13.30
2019-04-22T07:48:02.340Z,13.40
2019-04-22T07:50:44.799Z,13.50
2019-04-22T07:53:00.396Z,13.50
2019-04-22T07:55:36.831Z,13.60
2019-04-22T07:58:05.351Z,13.60
2019-04-22T08:03:11.862Z,13.70
2019-04-22T08:05:44.338Z,13.80
2019-04-22T08:08:16.024Z,13.90
2019-04-22T08:10:43.218Z,13.90
2019-04-22T08:13:11.855Z,14.00
2019-04-22T08:15:47.123Z,14.10
2019-04-22T08:18:28.353Z,14.20
2019-04-22T08:20:59.063Z,14.30
2019-04-22T08:23:16.438Z,14.30
2019-04-22T08:25:43.119Z,14.40
2019-04-22T08:28:17.569Z,14.50
2019-04-22T08:30:56.667Z,14.50
2019-04-22T08:33:21.627Z,14.60
2019-04-22T08:36:10.578Z,14.70
2019-04-22T08:38:24.227Z,14.80
2019-04-22T08:41:16.334Z,14.90
2019-04-22T08:43:51.516Z,14.90
2019-04-22T08:46:17.077Z,15.10
2019-04-22T08:48:48.401Z,15.20
2019-04-22T08:51:16.842Z,15.20
2019-04-22T08:53:48.171Z,15.30
2019-04-22T08:56:28.029Z,15.40
2019-04-22T08:58:52.400Z,15.60
2019-04-22T09:01:20.797Z,15.70
2019-04-22T09:03:50.677Z,15.80
2019-04-22T09:11:22.427Z,16.10
2019-04-22T09:13:50.697Z,16.20
2019-04-22T09:16:29.901Z,16.30
2019-04-22T09:24:00.121Z,16.60
2019-04-22T09:26:30.621Z,16.70
2019-04-22T09:31:28.980Z,17.00
2019-04-22T09:33:53.135Z,17.10
2019-04-22T09:39:01.690Z,17.40
2019-04-22T09:41:33.349Z,17.50
2019-04-22T09:44:05.645Z,17.60
2019-04-22T09:46:35.940Z,17.80
2019-04-22T09:49:06.337Z,17.80
2019-04-22T09:51:38.932Z,18.00
2019-04-22T09:56:37.465Z,18.30
2019-04-22T09:59:07.670Z,18.40
2019-04-22T10:01:34.865Z,18.60
2019-04-22T10:04:07.230Z,18.70
2019-04-22T10:06:36.691Z,18.80
2019-04-22T10:14:23.849Z,19.30
2019-04-22T10:16:43.757Z,19.50
2019-04-22T10:19:15.008Z,19.60
2019-04-22T10:24:16.669Z,19.90
2019-04-22T10:26:57.121Z,20.00
2019-04-22T10:29:18.361Z,20.20
2019-04-22T10:31:49.518Z,20.30
2019-04-22T10:34:09.246Z,20.50
2019-04-22T10:36:25.509Z,20.60
2019-04-22T10:38:54.770Z,20.70
2019-04-22T10:41:23.710Z,20.90
2019-04-22T10:43:52.971Z,21.00
2019-04-22T10:46:22.267Z,21.10
2019-04-22T10:48:52.652Z,21.30
2019-04-22T10:51:22.342Z,21.40
2019-04-22T10:53:51.380Z,21.50
2019-04-22T10:56:21.031Z,21.60
2019-04-22T10:58:50.824Z,21.80
2019-04-22T11:01:21.302Z,21.90
2019-04-22T11:03:51.104Z,22.10
2019-04-22T11:06:21.325Z,22.20
2019-04-22T11:08:57.414Z,22.30
2019-04-22T11:11:32.506Z,22.40
2019-04-22T11:13:51.962Z,22.60
2019-04-22T11:16:21.399Z,22.70
2019-04-22T11:47:05.604Z,24.10
2019-04-22T11:49:36.116Z,24.20
2019-04-22T11:52:08.447Z,24.30
2019-04-22T11:54:36.894Z,24.40
2019-04-22T11:57:07.450Z,24.40
2019-04-22T11:59:36.612Z,24.50
2019-04-22T12:02:06.723Z,24.60
2019-04-22T12:04:36.194Z,24.70
2019-04-22T12:07:05.909Z,24.80
2019-04-22T12:09:35.325Z,24.90
2019-04-22T12:12:05.759Z,25.00
2019-04-22T12:14:36.221Z,25.10
2019-04-22T12:17:07.679Z,25.10
2019-04-22T12:19:37.925Z,25.20
2019-04-22T12:22:07.152Z,25.30
2019-04-22T12:24:36.571Z,25.40
2019-04-22T12:27:08.410Z,25.50
2019-04-22T12:29:38.662Z,25.50
2019-04-22T12:32:09.338Z,25.60
2019-04-22T12:34:39.680Z,25.70
2019-04-22T12:37:08.870Z,25.80
2019-04-22T12:39:39.150Z,25.90
2019-04-22T12:42:09.028Z,25.90
2019-04-22T12:44:40.515Z,26.00
2019-04-22T12:47:09.850Z,26.00
2019-04-22T12:49:42.328Z,26.10
2019-04-22T12:52:21.939Z,26.20
2019-04-22T12:54:40.854Z,26.20
2019-04-22T12:57:10.403Z,26.30
2019-04-22T12:59:39.800Z,26.40
2019-04-22T13:02:09.157Z,26.40
2019-04-22T13:04:38.540Z,26.50
2019-04-22T13:07:07.964Z,26.60
2019-04-22T13:09:37.367Z,26.60
2019-04-22T13:12:06.860Z,26.70
2019-04-22T13:14:36.912Z,26.70
2019-04-22T13:17:06.275Z,26.70
2019-04-22T13:19:36.145Z,26.80
2019-04-22T13:22:06.964Z,26.90
2019-04-22T13:24:36.234Z,27.00
2019-04-22T13:27:06.576Z,27.00
2019-04-22T13:29:37.208Z,27.00
2019-04-22T13:32:06.894Z,27.10
2019-04-22T13:34:42.327Z,27.10
2019-04-22T13:37:07.411Z,27.20
2019-04-22T13:39:36.817Z,27.30
2019-04-22T13:42:11.413Z,27.30
2019-04-22T13:44:37.712Z,27.30
2019-04-22T13:47:24.066Z,27.40
2019-04-22T13:54:24.315Z,27.50
2019-04-22T13:57:29.431Z,27.60
2019-04-22T13:59:45.964Z,27.70
2019-04-22T14:02:42.604Z,27.70
2019-04-22T14:05:14.730Z,27.80
2019-04-22T14:07:43.882Z,27.80
2019-04-22T14:10:14.199Z,27.90
2019-04-22T14:12:44.585Z,28.00
2019-04-22T14:15:15.960Z,28.10
2019-04-22T14:17:45.399Z,28.10
2019-04-22T14:20:15.183Z,28.20
2019-04-22T14:22:44.477Z,28.30
2019-04-22T14:25:14.603Z,28.40
2019-04-22T14:27:51.359Z,28.40
2019-04-22T14:30:16.772Z,28.50
2019-04-22T14:32:46.011Z,28.60
2019-04-22T14:35:15.382Z,28.60
2019-04-22T14:37:45.740Z,28.70
2019-04-22T14:40:18.375Z,28.80
2019-04-22T14:43:06.015Z,28.90
2019-04-22T14:45:53.484Z,29.00
2019-04-22T14:48:10.991Z,29.10
2019-04-22T14:50:42.266Z,29.10
2019-04-22T14:53:11.304Z,29.20
2019-04-22T14:55:25.871Z,29.30
2019-04-22T14:57:52.884Z,29.30
2019-04-22T15:00:26.318Z,29.40
2019-04-22T15:02:57.424Z,29.50
2019-04-22T15:05:28.159Z,29.60
2019-04-22T15:07:57.384Z,29.60
2019-04-22T15:10:28.124Z,29.70
2019-04-22T15:13:00.543Z,29.80
2019-04-22T15:15:40.488Z,29.90
2019-04-22T15:18:11.801Z,30.00
2019-04-22T15:20:56.722Z,30.00
2019-04-22T15:23:26.729Z,30.10
2019-04-22T15:25:56.797Z,30.20
2019-04-22T15:28:27.106Z,30.20
2019-04-22T15:30:57.453Z,30.20
2019-04-22T15:33:27.732Z,30.20
2019-04-22T15:35:56.874Z,30.20
2019-04-22T15:38:26.211Z,30.20
2019-04-22T15:40:56.651Z,30.30
2019-04-22T15:43:29.721Z,30.40
2019-04-22T15:46:01.432Z,30.50
2019-04-22T15:48:29.185Z,30.60
2019-04-22T15:50:58.633Z,30.60
2019-04-22T15:53:27.619Z,30.60
2019-04-22T15:55:56.755Z,30.60
2019-04-22T15:58:25.857Z,30.60
2019-04-22T16:01:06.534Z,30.60
2019-04-22T16:03:26.863Z,30.70
2019-04-22T16:05:56.046Z,30.70
2019-04-22T16:08:24.922Z,30.80
2019-04-22T16:10:53.994Z,30.90
2019-04-22T16:13:25.533Z,30.80
2019-04-22T16:15:54.443Z,30.90
2019-04-22T16:18:24.334Z,30.90
2019-04-22T16:20:54.350Z,31.00
2019-04-22T16:23:32.175Z,31.00
2019-04-22T16:26:26.527Z,30.80
2019-04-22T16:28:57.591Z,30.80
2019-04-22T16:31:27.122Z,30.80
2019-04-22T16:33:56.364Z,30.70
2019-04-22T16:36:26.809Z,30.60
2019-04-22T16:38:57.095Z,30.60
2019-04-22T16:41:26.467Z,30.60
2019-04-22T16:43:56.285Z,30.60
2019-04-22T16:46:25.654Z,30.40
2019-04-22T16:48:55.874Z,30.30
2019-04-22T16:51:25.265Z,30.20
2019-04-22T16:53:54.107Z,30.20
2019-04-22T16:56:23.098Z,30.00
2019-04-22T16:58:52.810Z,29.90
2019-04-22T17:01:59.221Z,29.80
2019-04-22T17:04:38.643Z,29.70
2019-04-22T17:07:11.845Z,29.60
2019-04-22T17:09:41.684Z,29.40
2019-04-22T17:12:11.989Z,29.20
2019-04-22T17:14:56.789Z,29.10
2019-04-22T17:17:22.349Z,28.90
2019-04-22T17:19:51.448Z,28.80
2019-04-22T17:22:21.620Z,28.80
2019-04-22T17:24:50.762Z,28.60
2019-04-22T17:27:20.230Z,28.40
2019-04-22T17:29:50.586Z,28.30
2019-04-22T17:32:22.986Z,28.10
2019-04-22T17:34:51.741Z,28.10
2019-04-22T17:37:26.553Z,27.90
2019-04-22T17:40:11.675Z,27.70
2019-04-22T17:42:42.482Z,27.60
2019-04-22T17:45:24.315Z,27.40
2019-04-22T17:48:14.146Z,27.40
2019-04-22T17:50:46.288Z,27.20
2019-04-22T17:53:22.952Z,27.10
2019-04-22T17:55:49.479Z,27.00
2019-04-22T17:58:23.098Z,26.90
2019-04-22T18:00:50.462Z,26.80
2019-04-22T18:03:11.835Z,26.60
2019-04-22T18:05:38.366Z,26.50
2019-04-22T18:08:17.706Z,26.40
2019-04-22T18:10:49.170Z,26.20
2019-04-22T18:13:28.215Z,26.00
2019-04-22T18:15:54.897Z,25.80
2019-04-22T18:18:23.083Z,25.80
2019-04-22T18:20:45.743Z,25.70
2019-04-22T18:23:11.957Z,25.50
2019-04-22T18:25:57.643Z,25.40
2019-04-22T18:28:30.326Z,25.30
2019-04-22T18:30:52.983Z,25.10
2019-04-22T18:33:23.939Z,25.00
2019-04-22T18:35:58.386Z,24.90
2019-04-22T18:38:44.383Z,24.80
2019-04-22T18:41:03.520Z,24.70
2019-04-22T18:43:32.885Z,24.60
2019-04-22T18:46:06.504Z,24.40
2019-04-22T18:48:29.711Z,24.30
2019-04-22T18:54:28.857Z,24.00
2019-04-22T18:57:02.561Z,23.90
2019-04-22T18:59:22.559Z,23.80
2019-04-22T19:01:46.074Z,23.60
2019-04-22T19:04:24.318Z,23.50
2019-04-22T19:07:15.256Z,23.40
2019-04-22T19:09:41.435Z,23.30
2019-04-22T19:14:45.377Z,23.10
2019-04-22T19:17:17.389Z,23.00
2019-04-22T19:19:44.197Z,22.80
2019-04-22T19:22:09.733Z,22.70
2019-04-22T19:24:39.818Z,22.60
2019-04-22T19:27:15.600Z,22.40
2019-04-22T19:29:48.784Z,22.30
2019-04-22T19:32:13.001Z,22.20
2019-04-22T19:34:46.404Z,22.10
2019-04-22T19:37:13.350Z,22.00
2019-04-22T19:39:52.559Z,21.90
2019-04-22T19:42:25.562Z,21.70
2019-04-22T19:44:53.095Z,21.70
2019-04-22T19:47:38.653Z,21.60
2019-04-22T19:49:57.989Z,21.40
2019-04-22T19:52:24.467Z,21.40
2019-04-22T19:54:54.997Z,21.20
2019-04-22T19:57:24.940Z,21.20
2019-04-22T19:59:51.168Z,21.10
2019-04-22T20:02:37.448Z,20.90
2019-04-22T20:05:29.725Z,20.90
2019-04-22T20:07:50.996Z,20.70
2019-04-22T20:10:28.127Z,20.60
2019-04-22T20:12:53.065Z,20.60
2019-04-22T20:15:25.921Z,20.50
2019-04-22T20:20:32.939Z,20.40
2019-04-22T20:22:57.644Z,20.30
2019-04-22T20:25:27.932Z,20.20
2019-04-22T20:28:06.174Z,20.10
2019-04-22T20:30:37.930Z,20.00
2019-04-22T20:33:19.049Z,19.90
2019-04-22T20:36:14.275Z,19.80
2019-04-22T20:38:40.266Z,19.70
2019-04-22T20:41:08.346Z,19.60
2019-04-22T20:43:51.487Z,19.50
2019-04-22T20:46:14.921Z,19.50
2019-04-22T20:48:48.232Z,19.40
2019-04-22T20:51:19.714Z,19.30
2019-04-22T20:54:07.458Z,19.30
2019-04-22T20:56:35.662Z,19.20
2019-04-22T20:59:08.306Z,19.10
2019-04-22T21:01:41.441Z,19.00
2019-04-22T21:03:57.644Z,19.00
2019-04-22T21:06:36.862Z,18.90
2019-04-22T21:09:13.515Z,18.80
2019-04-22T21:11:38.479Z,18.80
2019-04-22T21:14:12.211Z,18.80
2019-04-22T21:16:54.742Z,18.70
2019-04-22T21:19:29.745Z,18.60
2019-04-22T21:21:50.234Z,18.50
2019-04-22T21:24:20.285Z,18.50
2019-04-22T21:26:47.104Z,18.40
2019-04-22T21:29:17.339Z,18.30
2019-04-22T21:31:56.120Z,18.30
2019-04-22T21:34:20.628Z,18.20
2019-04-22T21:37:02.591Z,18.20
2019-04-22T21:39:23.881Z,18.10
2019-04-22T21:41:51.442Z,18.00
2019-04-22T21:44:26.714Z,18.00
2019-04-22T21:47:03.326Z,17.90
2019-04-22T21:49:31.083Z,17.90
2019-04-22T21:52:01.214Z,17.70
2019-04-22T21:54:34.729Z,17.70
2019-04-22T21:57:35.612Z,17.60
2019-04-22T21:59:47.090Z,17.60
2019-04-22T22:02:39.191Z,17.50
2019-04-22T22:04:48.038Z,17.40
2019-04-22T22:07:09.727Z,17.40
2019-04-22T22:09:54.175Z,17.40
2019-04-22T22:12:24.245Z,17.30
2019-04-22T22:15:00.378Z,17.30
2019-04-22T22:17:25.248Z,17.20
2019-04-22T22:19:52.907Z,17.10
2019-04-22T22:22:42.206Z,17.10
2019-04-22T22:24:57.265Z,17.00
2019-04-22T22:27:34.184Z,17.00
2019-04-22T22:32:33.701Z,16.80
2019-04-22T22:35:03.748Z,16.80
2019-04-22T22:37:22.515Z,16.70
2019-04-22T22:39:51.253Z,16.70
2019-04-22T22:42:22.497Z,16.60
2019-04-22T22:44:48.725Z,16.60
2019-04-22T22:47:30.351Z,16.60
2019-04-22T22:50:07.701Z,16.50
2019-04-22T22:55:10.806Z,16.40
2019-04-22T22:57:39.627Z,16.40
2019-04-22T23:00:08.481Z,16.30
2019-04-22T23:02:59.535Z,16.30
2019-04-22T23:05:09.793Z,16.20
2019-04-22T23:07:42.445Z,16.10
2019-04-22T23:10:14.410Z,16.10
2019-04-22T23:13:01.613Z,16.00
2019-04-22T23:15:08.813Z,16.00
2019-04-22T23:17:26.082Z,16.00
2019-04-22T23:19:56.103Z,15.90
2019-04-22T23:22:31.061Z,15.90
2019-04-22T23:25:19.170Z,15.90
2019-04-22T23:27:44.481Z,15.80
2019-04-22T23:30:36.223Z,15.80
2019-04-22T23:33:18.904Z,15.70
2019-04-22T23:35:49.505Z,15.60
2019-04-22T23:38:23.157Z,15.60
2019-04-22T23:40:55.564Z,15.60
2019-04-22T23:43:34.149Z,15.50
2019-04-22T23:46:02.231Z,15.50
2019-04-22T23:48:26.001Z,15.50
2019-04-22T23:51:03.137Z,15.40
2019-04-22T23:53:58.076Z,15.40
2019-04-22T23:56:06.110Z,15.30
